createdAt,value
2022-12-17T00:00:28.264Z,31.17
2022-12-17T00:03:15.835Z,25.82
2022-12-17T00:08:37.555Z,29.98
2022-12-17T00:11:31.010Z,25.60
2022-12-17T00:14:30.362Z,23.67
2022-12-17T00:17:16.451Z,23.35
2022-12-17T00:22:54.764Z,29.77
2022-12-17T00:28:16.800Z,28.25
2022-12-17T00:33:38.995Z,29.72
2022-12-17T00:39:08.025Z,23.55
2022-12-17T00:41:54.299Z,22.50
2022-12-17T00:44:40.580Z,23.27
2022-12-17T00:50:15.844Z,28.10
2022-12-17T00:53:02.056Z,23.25
2022-12-17T00:58:23.926Z,28.35
2022-12-17T01:01:10.322Z,23.00
2022-12-17T01:06:32.133Z,28.40
2022-12-17T01:11:56.491Z,27.87
2022-12-17T01:17:16.011Z,20.62
2022-12-17T01:22:37.928Z,26.57
2022-12-17T01:28:00.635Z,19.45
2022-12-17T01:33:22.168Z,27.62
2022-12-17T01:36:08.351Z,21.48
2022-12-17T01:41:30.303Z,25.77
2022-12-17T01:44:16.734Z,21.77
2022-12-17T01:49:38.881Z,19.32
2022-12-17T01:55:00.656Z,23.18
2022-12-17T02:00:22.486Z,24.32
2022-12-17T02:05:44.666Z,22.40
2022-12-17T02:11:06.955Z,21.93
2022-12-17T02:16:31.621Z,17.20
2022-12-17T02:21:51.419Z,16.57
2022-12-17T02:24:37.722Z,17.60
2022-12-17T02:29:59.598Z,23.65
2022-12-17T02:35:21.381Z,24.67
2022-12-17T02:38:07.882Z,20.48
2022-12-17T02:40:54.029Z,19.00
2022-12-17T02:46:16.281Z,18.82
2022-12-17T02:49:02.467Z,21.07
2022-12-17T02:54:37.642Z,24.95
2022-12-17T02:57:23.930Z,20.17
2022-12-17T03:00:09.969Z,19.07
2022-12-17T03:05:47.030Z,23.77
2022-12-17T03:10:53.855Z,22.15
2022-12-17T03:13:43.362Z,17.67
2022-12-17T03:19:09.895Z,18.27
2022-12-17T03:21:56.060Z,15.13
2022-12-17T03:27:17.989Z,20.25
2022-12-17T03:32:39.815Z,20.00
2022-12-17T03:35:26.557Z,16.00
2022-12-17T03:40:48.196Z,18.12
2022-12-17T03:46:11.138Z,18.82
2022-12-17T03:51:35.302Z,17.82
2022-12-17T03:54:19.203Z,14.18
2022-12-17T03:59:40.879Z,17.70
2022-12-17T04:02:28.177Z,14.13
2022-12-17T04:05:33.969Z,13.90
2022-12-17T04:16:16.259Z,19.30
2022-12-17T04:21:38.448Z,17.55
2022-12-17T04:27:02.674Z,17.53
2022-12-17T04:32:22.201Z,17.27
2022-12-17T04:35:08.548Z,14.33
2022-12-17T04:37:54.862Z,13.50
2022-12-17T04:43:16.669Z,16.83
2022-12-17T04:48:39.740Z,17.10
2022-12-17T04:54:01.454Z,17.07
2022-12-17T04:56:47.586Z,13.72
2022-12-17T05:02:10.090Z,12.95
2022-12-17T05:10:09.526Z,17.27
2022-12-17T05:15:31.897Z,17.62
2022-12-17T05:20:59.216Z,13.38
2022-12-17T05:23:45.316Z,13.18
2022-12-17T05:29:15.424Z,12.93
2022-12-17T05:31:54.181Z,13.25
2022-12-17T05:34:40.214Z,13.18
2022-12-17T05:40:01.969Z,16.87
2022-12-17T05:42:48.132Z,14.25
2022-12-17T05:45:36.942Z,12.60
2022-12-17T05:50:56.588Z,16.27
2022-12-17T05:53:42.850Z,13.30
2022-12-17T05:59:04.706Z,16.02
2022-12-17T06:01:51.023Z,12.33
2022-12-17T06:04:37.389Z,13.22
2022-12-17T06:09:59.085Z,15.65
2022-12-17T06:12:58.814Z,12.70
2022-12-17T06:15:55.436Z,12.18
2022-12-17T06:21:17.092Z,15.15
2022-12-17T06:24:03.548Z,13.43
2022-12-17T06:29:29.381Z,16.02
2022-12-17T06:34:51.389Z,15.43
2022-12-17T06:40:13.323Z,15.55
2022-12-17T06:45:35.041Z,14.83
2022-12-17T06:50:56.885Z,14.97
2022-12-17T06:53:42.813Z,12.55
2022-12-17T06:59:04.602Z,15.45
2022-12-17T07:01:53.662Z,12.70
2022-12-17T07:04:39.656Z,12.05
2022-12-17T07:07:23.627Z,12.68
2022-12-17T07:12:45.661Z,15.75
2022-12-17T07:18:20.558Z,15.40
2022-12-17T07:26:28.264Z,15.28
2022-12-17T07:29:14.564Z,11.70
2022-12-17T07:32:06.591Z,11.80
2022-12-17T07:40:05.014Z,14.35
2022-12-17T07:42:48.909Z,12.25
2022-12-17T07:45:35.122Z,12.10
2022-12-17T07:50:56.918Z,13.48
2022-12-17T07:56:18.766Z,14.47
2022-12-17T08:01:40.666Z,14.07
2022-12-17T08:07:08.717Z,14.97
2022-12-17T08:12:41.292Z,13.57
2022-12-17T08:18:03.506Z,10.35
2022-12-17T08:23:26.670Z,13.00
2022-12-17T08:28:52.811Z,13.73
2022-12-17T08:34:14.804Z,13.60
2022-12-17T08:37:00.971Z,12.00
2022-12-17T08:42:22.837Z,13.97
2022-12-17T08:47:44.777Z,14.87
2022-12-17T08:50:30.919Z,11.97
2022-12-17T08:55:53.147Z,11.73
2022-12-17T09:01:17.694Z,14.00
2022-12-17T09:04:04.639Z,12.15
2022-12-17T09:06:50.814Z,10.78
2022-12-17T09:12:12.597Z,14.35
2022-12-17T09:14:58.848Z,12.80
2022-12-17T09:17:45.023Z,11.78
2022-12-17T09:23:07.004Z,14.80
2022-12-17T09:25:57.953Z,12.07
2022-12-17T09:28:39.661Z,11.97
2022-12-17T09:34:01.736Z,12.68
2022-12-17T09:36:51.149Z,12.00
2022-12-17T09:42:10.929Z,14.55
2022-12-17T09:45:02.232Z,12.50
2022-12-17T09:50:28.562Z,11.55
2022-12-17T09:53:12.555Z,9.63
2022-12-17T09:58:37.381Z,11.90
2022-12-17T10:03:59.905Z,10.98
2022-12-17T10:06:46.401Z,11.65
2022-12-17T10:12:08.254Z,14.30
2022-12-17T10:14:54.557Z,12.63
2022-12-17T10:17:40.558Z,11.50
2022-12-17T10:23:05.703Z,11.20
2022-12-17T10:25:52.125Z,11.18
2022-12-17T10:31:13.995Z,13.45
2022-12-17T10:33:59.955Z,12.25
2022-12-17T10:36:46.288Z,11.68
2022-12-17T10:42:10.038Z,11.38
2022-12-17T10:47:31.826Z,13.77
2022-12-17T10:52:53.777Z,11.93
2022-12-17T10:58:15.593Z,13.67
2022-12-17T11:03:47.473Z,13.33
2022-12-17T11:06:37.509Z,10.55
2022-12-17T11:09:20.940Z,9.98
2022-12-17T11:14:44.249Z,12.63
2022-12-17T11:17:30.619Z,10.15
2022-12-17T11:22:53.067Z,12.03
2022-12-17T11:25:42.956Z,10.18
2022-12-17T11:31:06.039Z,9.70
2022-12-17T11:33:54.692Z,10.18
2022-12-17T11:39:25.390Z,9.78
2022-12-17T11:42:11.849Z,9.73
2022-12-17T11:45:00.191Z,8.70
2022-12-17T11:50:24.324Z,8.95
2022-12-17T11:53:10.968Z,9.78
2022-12-17T11:55:59.604Z,8.98
2022-12-17T12:01:20.480Z,10.68
2022-12-17T12:04:07.717Z,9.58
2022-12-17T12:06:55.147Z,9.20
2022-12-17T12:12:17.526Z,9.60
2022-12-17T12:15:04.259Z,9.23
2022-12-17T12:20:27.396Z,8.83
2022-12-17T12:25:50.269Z,8.83
2022-12-17T12:31:14.275Z,8.13
2022-12-17T12:34:02.486Z,9.10
2022-12-17T12:36:49.012Z,7.92
2022-12-17T12:39:54.980Z,7.42
2022-12-17T12:45:18.007Z,7.87
2022-12-17T12:50:41.182Z,7.37
2022-12-17T12:53:28.829Z,7.47
2022-12-17T12:56:15.236Z,7.10
2022-12-17T12:59:01.399Z,8.25
2022-12-17T13:04:34.742Z,7.35
2022-12-17T13:07:03.087Z,7.72
2022-12-17T13:12:18.800Z,7.60
2022-12-17T13:14:47.329Z,7.70
2022-12-17T13:17:21.621Z,7.47
2022-12-17T13:22:35.248Z,7.67
2022-12-17T13:25:16.242Z,7.40
2022-12-17T13:27:44.636Z,7.22
2022-12-17T13:32:52.466Z,8.30
2022-12-17T13:35:20.866Z,7.50
2022-12-17T13:40:27.576Z,7.80
2022-12-17T13:42:55.901Z,7.80
2022-12-17T13:45:24.371Z,7.35
2022-12-17T13:50:35.490Z,7.62
2022-12-17T13:52:59.404Z,8.48
2022-12-17T13:55:27.703Z,7.67
2022-12-17T14:00:31.789Z,8.58
2022-12-17T14:03:00.178Z,7.35
2022-12-17T14:05:28.487Z,7.90
2022-12-17T14:10:32.820Z,7.47
2022-12-17T14:13:02.799Z,8.10
2022-12-17T14:18:06.869Z,9.08
2022-12-17T14:23:12.357Z,9.00
2022-12-17T14:25:40.669Z,8.53
2022-12-17T14:31:17.156Z,9.53
2022-12-17T14:33:25.326Z,8.50
2022-12-17T14:35:53.680Z,8.80
2022-12-17T14:41:02.270Z,9.68
2022-12-17T14:43:30.681Z,8.78
2022-12-17T14:46:16.824Z,8.55
2022-12-17T14:51:23.878Z,9.38
2022-12-17T14:53:52.464Z,8.83
2022-12-17T14:58:58.089Z,8.43
2022-12-17T15:04:02.167Z,10.58
2022-12-17T15:11:41.738Z,11.03
